CSAV Loncomilla — VRFB3 — position and weather

sailwx.info

Track history (hours):
 
Tides and Currents Weather Stations Pressure Air Temp Water Temp Dewpoint Dewpoint Depression Visibility Wind Speed Wind Dir Waves Ship Positions

CSAV Loncomilla

Last reported at 2017-Jul-29 11:29 UTC. Time now 2017-Jul-29 11:52 UTC.
Position S 37°40' E 176°11'.

Length 261 m; draft 8.6 m.

Type: Ship (hazmat cat A). MMSI: 477207400.

Date/timePositionNaut miles runAvg speedWind from/ knotsBaromVisibWave heightAir tempDewpointWater temp
2017-Jul-29 11:29S 37°40' E 176°11'0 0.0
2017-Jul-29 10:59S 37°40' E 176°11'0 0.0
2017-Jul-29 10:29S 37°40' E 176°11'0 0.0
2017-Jul-29 09:59S 37°40' E 176°11'0 0.0
2017-Jul-29 09:29S 37°40' E 176°11'0 0.0
2017-Jul-29 08:59S 37°40' E 176°11'0 0.9
2017-Jul-29 08:30S 37°39' E 176°11'5 9.0
2017-Jul-29 08:00S 37°35' E 176°13'612.2
2017-Jul-29 07:30S 37°32' E 176°19'  
2017-Jul-25 03:44S 36°26' E 175°16'313.6
2017-Jul-25 03:30S 36°28' E 175°13'713.5
2017-Jul-25 03:00S 36°32' E 175°06'713.7
2017-Jul-25 02:30S 36°36' E 174°60'713.5
2017-Jul-25 02:00S 36°41' E 174°54'612.7
2017-Jul-25 01:30S 36°46' E 174°49'4 8.6
2017-Jul-25 00:59S 36°50' E 174°47'0 0.7
2017-Jul-25 00:25S 36°51' E 174°47'0 0.0
2017-Jul-24 23:55S 36°51' E 174°47'0 0.0
2017-Jul-24 23:25S 36°51' E 174°47'0 0.0
2017-Jul-24 23:01S 36°51' E 174°47'0 0.0
2017-Jul-24 22:31S 36°51' E 174°47'0 0.0
2017-Jul-24 22:01S 36°51' E 174°47'0 0.0
2017-Jul-24 21:25S 36°51' E 174°47'0 0.0
2017-Jul-24 21:01S 36°51' E 174°47'0 0.0
2017-Jul-24 20:31S 36°51' E 174°47'0 0.0
2017-Jul-24 19:55S 36°51' E 174°47'0 0.0
2017-Jul-24 19:31S 36°51' E 174°47'0 0.0
2017-Jul-24 19:01S 36°51' E 174°47'0 0.0
2017-Jul-24 18:25S 36°51' E 174°47'0 0.0
2017-Jul-24 18:01S 36°51' E 174°47'0 0.0
2017-Jul-24 17:31S 36°51' E 174°47'0 0.0
2017-Jul-24 17:01S 36°51' E 174°47'0 0.0
2017-Jul-24 16:31S 36°51' E 174°47'0 0.0
2017-Jul-24 15:49S 36°51' E 174°47'0 0.0
2017-Jul-24 13:01S 36°51' E 174°47'0 0.0
2017-Jul-24 12:31S 36°51' E 174°47'0 0.0
2017-Jul-24 12:01S 36°51' E 174°47'0 0.0
2017-Jul-24 11:31S 36°51' E 174°47'0 0.0
2017-Jul-24 11:01S 36°51' E 174°47'0 0.0
2017-Jul-24 10:31S 36°51' E 174°47'0 0.0
2017-Jul-24 10:01S 36°51' E 174°47'0 0.0
2017-Jul-24 09:19S 36°51' E 174°47'0 0.0
2017-Jul-24 09:01S 36°51' E 174°47'0 0.0
2017-Jul-24 08:31S 36°51' E 174°47'0 0.0
2017-Jul-24 07:49S 36°51' E 174°47'0 0.0
2017-Jul-24 07:25S 36°51' E 174°47'0 0.0
2017-Jul-24 07:01S 36°51' E 174°47'0 0.0
2017-Jul-24 06:31S 36°51' E 174°47'0 0.0
2017-Jul-24 06:01S 36°51' E 174°47'0 0.0
2017-Jul-24 05:31S 36°51' E 174°47'0 0.0
2017-Jul-24 04:55S 36°51' E 174°47'0 0.0
2017-Jul-24 04:31S 36°51' E 174°47'0 0.0
2017-Jul-24 04:01S 36°51' E 174°47'0 0.0
2017-Jul-24 03:31S 36°51' E 174°47'0 0.0
2017-Jul-24 03:00S 36°51' E 174°47'0 0.0
2017-Jul-24 02:30S 36°51' E 174°47'0 0.0
2017-Jul-24 02:00S 36°51' E 174°47'0 0.0
2017-Jul-24 01:31S 36°51' E 174°47'0 0.0
2017-Jul-24 01:00S 36°51' E 174°47'0 0.0
2017-Jul-24 00:30S 36°51' E 174°47'0 0.0
2017-Jul-24 00:01S 36°51' E 174°47'0 0.0
2017-Jul-23 23:30S 36°51' E 174°47'0 0.0
2017-Jul-23 23:01S 36°51' E 174°47'0 0.0
2017-Jul-23 22:30S 36°51' E 174°47'0 0.0
2017-Jul-23 22:00S 36°51' E 174°47'0 0.0
2017-Jul-23 21:30S 36°51' E 174°47'0 0.0
2017-Jul-23 21:00S 36°51' E 174°47'0 0.0
2017-Jul-23 20:12S 36°51' E 174°47'0 0.0
2017-Jul-23 20:00S 36°51' E 174°47'0 0.0
2017-Jul-23 19:30S 36°51' E 174°47'0 0.0
2017-Jul-23 19:00S 36°51' E 174°47'0 0.0
2017-Jul-23 18:30S 36°51' E 174°47'0 0.6
2017-Jul-23 17:59S 36°50' E 174°47'3 6.0
2017-Jul-23 17:29S 36°48' E 174°49'713.5
2017-Jul-23 17:00S 36°42' E 174°53'3 5.2
2017-Jul-23 16:30S 36°40' E 174°54'0 0.9
2017-Jul-23 16:00S 36°40' E 174°54'0 0.7
2017-Jul-23 15:30S 36°39' E 174°54'0 0.6
2017-Jul-23 15:00S 36°39' E 174°53'0 0.9
2017-Jul-23 14:30S 36°39' E 174°54'0 0.3
2017-Jul-23 14:00S 36°39' E 174°53'0 0.8
2017-Jul-23 13:30S 36°39' E 174°53'1 1.6
2017-Jul-23 13:00S 36°39' E 174°54'4 7.5
2017-Jul-23 12:30S 36°36' E 174°57'5 9.6
2017-Jul-23 12:00S 36°31' E 174°59'5 9.4
2017-Jul-23 11:30S 36°27' E 175°00'5 9.4
2017-Jul-23 11:00S 36°22' E 174°59'5 9.5
2017-Jul-23 10:30S 36°18' E 174°57'5 9.7
2017-Jul-23 09:59S 36°13' E 174°55'  
Track history (hours):
 
Tides and Currents Weather Stations Pressure Air Temp Water Temp Dewpoint Dewpoint Depression Visibility Wind Speed Wind Dir Waves Ship Positions

CSAV Loncomilla

Last reported at 2017-Jul-29 11:29 UTC. Time now 2017-Jul-29 11:52 UTC.
Position S 37°40' E 176°11'.

Length 261 m; draft 8.6 m.

Type: Ship (hazmat cat A). MMSI: 477207400.

Date/timePositionNaut miles runAvg speedWind from/ knotsBaromVisibWave heightAir tempDewpointWater temp
2017-Jul-29 11:29S 37°40' E 176°11'0 0.0
2017-Jul-29 10:59S 37°40' E 176°11'0 0.0
2017-Jul-29 10:29S 37°40' E 176°11'0 0.0
2017-Jul-29 09:59S 37°40' E 176°11'0 0.0
2017-Jul-29 09:29S 37°40' E 176°11'0 0.0
2017-Jul-29 08:59S 37°40' E 176°11'0 0.9
2017-Jul-29 08:30S 37°39' E 176°11'5 9.0
2017-Jul-29 08:00S 37°35' E 176°13'612.2
2017-Jul-29 07:30S 37°32' E 176°19'  
2017-Jul-25 03:44S 36°26' E 175°16'313.6
2017-Jul-25 03:30S 36°28' E 175°13'713.5
2017-Jul-25 03:00S 36°32' E 175°06'713.7
2017-Jul-25 02:30S 36°36' E 174°60'713.5
2017-Jul-25 02:00S 36°41' E 174°54'612.7
2017-Jul-25 01:30S 36°46' E 174°49'4 8.6
2017-Jul-25 00:59S 36°50' E 174°47'0 0.7
2017-Jul-25 00:25S 36°51' E 174°47'0 0.0
2017-Jul-24 23:55S 36°51' E 174°47'0 0.0
2017-Jul-24 23:25S 36°51' E 174°47'0 0.0
2017-Jul-24 23:01S 36°51' E 174°47'0 0.0
2017-Jul-24 22:31S 36°51' E 174°47'0 0.0
2017-Jul-24 22:01S 36°51' E 174°47'0 0.0
2017-Jul-24 21:25S 36°51' E 174°47'0 0.0
2017-Jul-24 21:01S 36°51' E 174°47'0 0.0
2017-Jul-24 20:31S 36°51' E 174°47'0 0.0
2017-Jul-24 19:55S 36°51' E 174°47'0 0.0
2017-Jul-24 19:31S 36°51' E 174°47'0 0.0
2017-Jul-24 19:01S 36°51' E 174°47'0 0.0
2017-Jul-24 18:25S 36°51' E 174°47'0 0.0
2017-Jul-24 18:01S 36°51' E 174°47'0 0.0
2017-Jul-24 17:31S 36°51' E 174°47'0 0.0
2017-Jul-24 17:01S 36°51' E 174°47'0 0.0
2017-Jul-24 16:31S 36°51' E 174°47'0 0.0
2017-Jul-24 15:49S 36°51' E 174°47'0 0.0
2017-Jul-24 13:01S 36°51' E 174°47'0 0.0
2017-Jul-24 12:31S 36°51' E 174°47'0 0.0
2017-Jul-24 12:01S 36°51' E 174°47'0 0.0
2017-Jul-24 11:31S 36°51' E 174°47'0 0.0
2017-Jul-24 11:01S 36°51' E 174°47'0 0.0
2017-Jul-24 10:31S 36°51' E 174°47'0 0.0
2017-Jul-24 10:01S 36°51' E 174°47'0 0.0
2017-Jul-24 09:19S 36°51' E 174°47'0 0.0
2017-Jul-24 09:01S 36°51' E 174°47'0 0.0
2017-Jul-24 08:31S 36°51' E 174°47'0 0.0
2017-Jul-24 07:49S 36°51' E 174°47'0 0.0
2017-Jul-24 07:25S 36°51' E 174°47'0 0.0
2017-Jul-24 07:01S 36°51' E 174°47'0 0.0
2017-Jul-24 06:31S 36°51' E 174°47'0 0.0
2017-Jul-24 06:01S 36°51' E 174°47'0 0.0
2017-Jul-24 05:31S 36°51' E 174°47'0 0.0
2017-Jul-24 04:55S 36°51' E 174°47'0 0.0
2017-Jul-24 04:31S 36°51' E 174°47'0 0.0
2017-Jul-24 04:01S 36°51' E 174°47'0 0.0
2017-Jul-24 03:31S 36°51' E 174°47'0 0.0
2017-Jul-24 03:00S 36°51' E 174°47'0 0.0
2017-Jul-24 02:30S 36°51' E 174°47'0 0.0
2017-Jul-24 02:00S 36°51' E 174°47'0 0.0
2017-Jul-24 01:31S 36°51' E 174°47'0 0.0
2017-Jul-24 01:00S 36°51' E 174°47'0 0.0
2017-Jul-24 00:30S 36°51' E 174°47'0 0.0
2017-Jul-24 00:01S 36°51' E 174°47'0 0.0
2017-Jul-23 23:30S 36°51' E 174°47'0 0.0
2017-Jul-23 23:01S 36°51' E 174°47'0 0.0
2017-Jul-23 22:30S 36°51' E 174°47'0 0.0
2017-Jul-23 22:00S 36°51' E 174°47'0 0.0
2017-Jul-23 21:30S 36°51' E 174°47'0 0.0
2017-Jul-23 21:00S 36°51' E 174°47'0 0.0
2017-Jul-23 20:12S 36°51' E 174°47'0 0.0
2017-Jul-23 20:00S 36°51' E 174°47'0 0.0
2017-Jul-23 19:30S 36°51' E 174°47'0 0.0
2017-Jul-23 19:00S 36°51' E 174°47'0 0.0
2017-Jul-23 18:30S 36°51' E 174°47'0 0.6
2017-Jul-23 17:59S 36°50' E 174°47'3 6.0
2017-Jul-23 17:29S 36°48' E 174°49'713.5
2017-Jul-23 17:00S 36°42' E 174°53'3 5.2
2017-Jul-23 16:30S 36°40' E 174°54'0 0.9
2017-Jul-23 16:00S 36°40' E 174°54'0 0.7
2017-Jul-23 15:30S 36°39' E 174°54'0 0.6
2017-Jul-23 15:00S 36°39' E 174°53'0 0.9
2017-Jul-23 14:30S 36°39' E 174°54'0 0.3
2017-Jul-23 14:00S 36°39' E 174°53'0 0.8
2017-Jul-23 13:30S 36°39' E 174°53'1 1.6
2017-Jul-23 13:00S 36°39' E 174°54'4 7.5
2017-Jul-23 12:30S 36°36' E 174°57'5 9.6
2017-Jul-23 12:00S 36°31' E 174°59'5 9.4
2017-Jul-23 11:30S 36°27' E 175°00'5 9.4
2017-Jul-23 11:00S 36°22' E 174°59'5 9.5
2017-Jul-23 10:30S 36°18' E 174°57'5 9.7
2017-Jul-23 09:59S 36°13' E 174°55'  

Dump ship's entire track history